sensor_id;sensor_type;location;lat;lon;timestamp;temperature;humidity
37412;DHT22;23278;52.110;6.050;2022-09-09T00:04:15;15.50;99.90
37412;DHT22;23278;52.110;6.050;2022-09-09T00:07:15;15.40;99.90
37412;DHT22;23278;52.110;6.050;2022-09-09T00:10:09;15.30;99.90
37412;DHT22;23278;52.110;6.050;2022-09-09T00:12:51;15.20;99.90
37412;DHT22;23278;52.110;6.050;2022-09-09T00:21:14;15.20;99.90
37412;DHT22;23278;52.110;6.050;2022-09-09T00:23:54;15.30;99.90
37412;DHT22;23278;52.110;6.050;2022-09-09T00:29:00;15.30;99.90
37412;DHT22;23278;52.110;6.050;2022-09-09T00:31:30;15.40;99.90
37412;DHT22;23278;52.110;6.050;2022-09-09T00:34:03;15.40;99.90
37412;DHT22;23278;52.110;6.050;2022-09-09T00:36:30;15.40;99.90
37412;DHT22;23278;52.110;6.050;2022-09-09T00:39:01;15.40;99.90
37412;DHT22;23278;52.110;6.050;2022-09-09T00:44:30;15.40;99.90
37412;DHT22;23278;52.110;6.050;2022-09-09T00:53:19;15.30;99.90
37412;DHT22;23278;52.110;6.050;2022-09-09T00:56:13;15.30;99.90
37412;DHT22;23278;52.110;6.050;2022-09-09T00:58:43;15.30;99.90
37412;DHT22;23278;52.110;6.050;2022-09-09T01:01:16;15.30;99.90
37412;DHT22;23278;52.110;6.050;2022-09-09T01:03:55;15.30;99.90
37412;DHT22;23278;52.110;6.050;2022-09-09T01:06:34;15.30;99.90
37412;DHT22;23278;52.110;6.050;2022-09-09T01:09:30;15.20;99.90
37412;DHT22;23278;52.110;6.050;2022-09-09T01:12:02;15.10;99.90
37412;DHT22;23278;52.110;6.050;2022-09-09T01:17:22;14.90;99.90
37412;DHT22;23278;52.110;6.050;2022-09-09T01:26:09;14.80;99.90
37412;DHT22;23278;52.110;6.050;2022-09-09T01:28:38;14.70;99.90
37412;DHT22;23278;52.110;6.050;2022-09-09T01:31:12;14.70;99.90
37412;DHT22;23278;52.110;6.050;2022-09-09T01:33:43;14.70;99.90
37412;DHT22;23278;52.110;6.050;2022-09-09T01:36:13;14.70;99.90
37412;DHT22;23278;52.110;6.050;2022-09-09T01:38:49;14.60;99.90
37412;DHT22;23278;52.110;6.050;2022-09-09T01:41:16;14.60;99.90
37412;DHT22;23278;52.110;6.050;2022-09-09T01:43:48;14.60;99.90
37412;DHT22;23278;52.110;6.050;2022-09-09T01:46:14;14.60;99.90
37412;DHT22;23278;52.110;6.050;2022-09-09T01:48:42;14.50;99.90
37412;DHT22;23278;52.110;6.050;2022-09-09T01:51:14;14.50;99.90
37412;DHT22;23278;52.110;6.050;2022-09-09T01:54:07;14.40;99.90
37412;DHT22;23278;52.110;6.050;2022-09-09T01:57:08;14.40;99.90
37412;DHT22;23278;52.110;6.050;2022-09-09T02:00:05;14.40;99.90
37412;DHT22;23278;52.110;6.050;2022-09-09T02:07:46;14.30;99.90
37412;DHT22;23278;52.110;6.050;2022-09-09T02:10:52;14.20;99.90
37412;DHT22;23278;52.110;6.050;2022-09-09T02:13:32;14.20;99.90
37412;DHT22;23278;52.110;6.050;2022-09-09T02:18:42;14.20;99.90
37412;DHT22;23278;52.110;6.050;2022-09-09T02:21:12;14.20;99.90
37412;DHT22;23278;52.110;6.050;2022-09-09T02:23:41;14.10;99.90
37412;DHT22;23278;52.110;6.050;2022-09-09T02:26:12;14.10;99.90
37412;DHT22;23278;52.110;6.050;2022-09-09T02:28:41;14.10;99.90
37412;DHT22;23278;52.110;6.050;2022-09-09T02:31:07;14.10;99.90
37412;DHT22;23278;52.110;6.050;2022-09-09T02:33:42;14.00;99.90
37412;DHT22;23278;52.110;6.050;2022-09-09T02:36:10;14.00;99.90
37412;DHT22;23278;52.110;6.050;2022-09-09T02:38:45;14.00;99.90
37412;DHT22;23278;52.110;6.050;2022-09-09T02:41:14;14.00;99.90
37412;DHT22;23278;52.110;6.050;2022-09-09T02:43:40;14.00;99.90
37412;DHT22;23278;52.110;6.050;2022-09-09T02:49:19;13.90;99.90
37412;DHT22;23278;52.110;6.050;2022-09-09T02:52:01;13.90;99.90
37412;DHT22;23278;52.110;6.050;2022-09-09T02:54:35;13.90;99.90
37412;DHT22;23278;52.110;6.050;2022-09-09T02:57:23;13.90;99.90
37412;DHT22;23278;52.110;6.050;2022-09-09T02:59:51;13.80;99.90
37412;DHT22;23278;52.110;6.050;2022-09-09T03:02:20;13.80;99.90
37412;DHT22;23278;52.110;6.050;2022-09-09T03:04:52;13.80;99.90
37412;DHT22;23278;52.110;6.050;2022-09-09T03:07:19;13.80;99.90
37412;DHT22;23278;52.110;6.050;2022-09-09T03:09:46;13.70;99.90
37412;DHT22;23278;52.110;6.050;2022-09-09T03:12:13;13.80;99.90
37412;DHT22;23278;52.110;6.050;2022-09-09T03:14:39;13.80;99.90
37412;DHT22;23278;52.110;6.050;2022-09-09T03:17:06;13.70;99.90
37412;DHT22;23278;52.110;6.050;2022-09-09T03:19:37;13.70;99.90
37412;DHT22;23278;52.110;6.050;2022-09-09T03:22:05;13.80;99.90
37412;DHT22;23278;52.110;6.050;2022-09-09T03:24:34;13.80;99.90
37412;DHT22;23278;52.110;6.050;2022-09-09T03:27:02;13.80;99.90
37412;DHT22;23278;52.110;6.050;2022-09-09T03:29:29;13.80;99.90
37412;DHT22;23278;52.110;6.050;2022-09-09T03:31:58;13.80;99.90
37412;DHT22;23278;52.110;6.050;2022-09-09T03:34:24;13.70;99.90
37412;DHT22;23278;52.110;6.050;2022-09-09T03:36:49;13.70;99.90
37412;DHT22;23278;52.110;6.050;2022-09-09T03:39:16;13.70;99.90
37412;DHT22;23278;52.110;6.050;2022-09-09T03:41:43;13.70;99.90
37412;DHT22;23278;52.110;6.050;2022-09-09T03:44:11;13.70;99.90
37412;DHT22;23278;52.110;6.050;2022-09-09T03:46:39;13.70;99.90
37412;DHT22;23278;52.110;6.050;2022-09-09T03:49:05;13.70;99.90
37412;DHT22;23278;52.110;6.050;2022-09-09T03:51:31;13.70;99.90
37412;DHT22;23278;52.110;6.050;2022-09-09T03:53:59;13.70;99.90
37412;DHT22;23278;52.110;6.050;2022-09-09T03:56:27;13.70;99.90
37412;DHT22;23278;52.110;6.050;2022-09-09T03:58:53;13.70;99.90
37412;DHT22;23278;52.110;6.050;2022-09-09T04:01:19;13.60;99.90
37412;DHT22;23278;52.110;6.050;2022-09-09T04:03:46;13.60;99.90
37412;DHT22;23278;52.110;6.050;2022-09-09T04:06:13;13.60;99.90
37412;DHT22;23278;52.110;6.050;2022-09-09T04:08:41;13.70;99.90
37412;DHT22;23278;52.110;6.050;2022-09-09T04:11:08;13.70;99.90
37412;DHT22;23278;52.110;6.050;2022-09-09T04:13:36;13.70;99.90
37412;DHT22;23278;52.110;6.050;2022-09-09T04:16:09;13.80;99.90
37412;DHT22;23278;52.110;6.050;2022-09-09T04:18:37;13.80;99.90
37412;DHT22;23278;52.110;6.050;2022-09-09T04:21:03;14.00;99.90
37412;DHT22;23278;52.110;6.050;2022-09-09T04:23:31;14.00;99.90
37412;DHT22;23278;52.110;6.050;2022-09-09T04:26:01;14.00;99.90
37412;DHT22;23278;52.110;6.050;2022-09-09T04:28:30;14.10;99.90
37412;DHT22;23278;52.110;6.050;2022-09-09T04:31:03;14.10;99.90
37412;DHT22;23278;52.110;6.050;2022-09-09T04:33:29;14.20;99.90
37412;DHT22;23278;52.110;6.050;2022-09-09T04:35:55;14.20;99.90
37412;DHT22;23278;52.110;6.050;2022-09-09T04:38:23;14.30;99.90
37412;DHT22;23278;52.110;6.050;2022-09-09T04:40:50;14.30;99.90
37412;DHT22;23278;52.110;6.050;2022-09-09T04:43:17;14.30;99.90
37412;DHT22;23278;52.110;6.050;2022-09-09T04:45:47;14.40;99.90
37412;DHT22;23278;52.110;6.050;2022-09-09T04:48:14;14.40;99.90
37412;DHT22;23278;52.110;6.050;2022-09-09T04:50:40;14.40;99.90
37412;DHT22;23278;52.110;6.050;2022-09-09T04:53:07;14.40;99.90
37412;DHT22;23278;52.110;6.050;2022-09-09T04:55:36;14.40;99.90
37412;DHT22;23278;52.110;6.050;2022-09-09T04:58:06;14.40;99.90
37412;DHT22;23278;52.110;6.050;2022-09-09T05:00:34;14.50;99.90
37412;DHT22;23278;52.110;6.050;2022-09-09T05:03:06;14.50;99.90
37412;DHT22;23278;52.110;6.050;2022-09-09T05:05:34;14.50;99.90
37412;DHT22;23278;52.110;6.050;2022-09-09T05:08:02;14.60;99.90
37412;DHT22;23278;52.110;6.050;2022-09-09T05:10:29;14.60;99.90
37412;DHT22;23278;52.110;6.050;2022-09-09T05:12:55;14.60;99.90
37412;DHT22;23278;52.110;6.050;2022-09-09T05:15:25;14.60;99.90
37412;DHT22;23278;52.110;6.050;2022-09-09T05:17:51;14.60;99.90
37412;DHT22;23278;52.110;6.050;2022-09-09T05:20:19;14.60;99.90
37412;DHT22;23278;52.110;6.050;2022-09-09T05:22:45;14.60;99.90
37412;DHT22;23278;52.110;6.050;2022-09-09T05:25:11;14.60;99.90
37412;DHT22;23278;52.110;6.050;2022-09-09T05:27:36;14.50;99.90
37412;DHT22;23278;52.110;6.050;2022-09-09T05:30:04;14.50;99.90
37412;DHT22;23278;52.110;6.050;2022-09-09T05:32:30;14.50;99.90
37412;DHT22;23278;52.110;6.050;2022-09-09T05:34:59;14.50;99.90
37412;DHT22;23278;52.110;6.050;2022-09-09T05:37:25;14.50;99.90
37412;DHT22;23278;52.110;6.050;2022-09-09T05:39:52;14.50;99.90
37412;DHT22;23278;52.110;6.050;2022-09-09T05:42:19;14.50;99.90
37412;DHT22;23278;52.110;6.050;2022-09-09T05:44:45;14.60;99.90
37412;DHT22;23278;52.110;6.050;2022-09-09T05:47:11;14.60;99.90
37412;DHT22;23278;52.110;6.050;2022-09-09T05:49:37;14.50;99.90
37412;DHT22;23278;52.110;6.050;2022-09-09T05:52:03;14.60;99.90
37412;DHT22;23278;52.110;6.050;2022-09-09T05:54:30;14.60;99.90
37412;DHT22;23278;52.110;6.050;2022-09-09T05:56:56;14.60;99.90
37412;DHT22;23278;52.110;6.050;2022-09-09T05:59:22;14.70;99.90
37412;DHT22;23278;52.110;6.050;2022-09-09T06:01:51;14.80;99.90
37412;DHT22;23278;52.110;6.050;2022-09-09T06:04:26;14.80;99.90
37412;DHT22;23278;52.110;6.050;2022-09-09T06:06:52;14.80;99.90
37412;DHT22;23278;52.110;6.050;2022-09-09T06:09:20;14.80;99.90
37412;DHT22;23278;52.110;6.050;2022-09-09T06:11:46;14.80;99.90
37412;DHT22;23278;52.110;6.050;2022-09-09T06:14:13;14.80;99.90
37412;DHT22;23278;52.110;6.050;2022-09-09T06:16:40;14.80;99.90
37412;DHT22;23278;52.110;6.050;2022-09-09T06:19:14;14.80;99.90
37412;DHT22;23278;52.110;6.050;2022-09-09T06:21:41;14.80;99.90
37412;DHT22;23278;52.110;6.050;2022-09-09T06:24:08;14.90;99.90
37412;DHT22;23278;52.110;6.050;2022-09-09T06:26:38;14.90;99.90
37412;DHT22;23278;52.110;6.050;2022-09-09T06:29:07;15.00;99.90
37412;DHT22;23278;52.110;6.050;2022-09-09T06:31:35;15.00;99.90
37412;DHT22;23278;52.110;6.050;2022-09-09T06:34:22;15.10;99.90
37412;DHT22;23278;52.110;6.050;2022-09-09T06:36:57;15.10;99.90
37412;DHT22;23278;52.110;6.050;2022-09-09T06:39:24;15.30;99.90
37412;DHT22;23278;52.110;6.050;2022-09-09T06:41:51;15.50;99.90
37412;DHT22;23278;52.110;6.050;2022-09-09T06:44:38;15.60;99.90
37412;DHT22;23278;52.110;6.050;2022-09-09T06:47:08;15.70;99.90
37412;DHT22;23278;52.110;6.050;2022-09-09T06:49:34;15.70;99.90
37412;DHT22;23278;52.110;6.050;2022-09-09T06:52:02;15.70;99.90
37412;DHT22;23278;52.110;6.050;2022-09-09T06:54:29;15.80;99.90
37412;DHT22;23278;52.110;6.050;2022-09-09T06:56:55;15.80;99.90
37412;DHT22;23278;52.110;6.050;2022-09-09T06:59:23;15.90;99.90
37412;DHT22;23278;52.110;6.050;2022-09-09T07:01:51;16.00;99.90
37412;DHT22;23278;52.110;6.050;2022-09-09T07:04:19;16.00;99.90
37412;DHT22;23278;52.110;6.050;2022-09-09T07:06:46;16.00;99.90
37412;DHT22;23278;52.110;6.050;2022-09-09T07:09:16;16.20;99.90
37412;DHT22;23278;52.110;6.050;2022-09-09T07:11:47;16.30;99.90
37412;DHT22;23278;52.110;6.050;2022-09-09T07:14:15;16.50;99.90
37412;DHT22;23278;52.110;6.050;2022-09-09T07:16:45;16.60;99.90
37412;DHT22;23278;52.110;6.050;2022-09-09T07:19:13;16.60;99.90
37412;DHT22;23278;52.110;6.050;2022-09-09T07:21:41;16.60;99.90
37412;DHT22;23278;52.110;6.050;2022-09-09T07:24:08;16.60;99.90
37412;DHT22;23278;52.110;6.050;2022-09-09T07:26:37;16.80;99.90
37412;DHT22;23278;52.110;6.050;2022-09-09T07:29:03;17.00;99.90
37412;DHT22;23278;52.110;6.050;2022-09-09T07:31:32;17.30;99.90
37412;DHT22;23278;52.110;6.050;2022-09-09T07:33:59;17.40;99.90
37412;DHT22;23278;52.110;6.050;2022-09-09T07:36:31;17.50;99.90
37412;DHT22;23278;52.110;6.050;2022-09-09T07:39:04;17.40;99.90
37412;DHT22;23278;52.110;6.050;2022-09-09T07:41:35;17.30;99.90
37412;DHT22;23278;52.110;6.050;2022-09-09T07:44:07;17.20;99.90
37412;DHT22;23278;52.110;6.050;2022-09-09T07:46:34;17.20;99.90
37412;DHT22;23278;52.110;6.050;2022-09-09T07:49:01;17.30;99.90
37412;DHT22;23278;52.110;6.050;2022-09-09T07:51:33;17.50;99.90
37412;DHT22;23278;52.110;6.050;2022-09-09T07:54:03;17.70;99.90
37412;DHT22;23278;52.110;6.050;2022-09-09T07:56:30;17.80;99.90
37412;DHT22;23278;52.110;6.050;2022-09-09T07:58:58;17.80;99.90
37412;DHT22;23278;52.110;6.050;2022-09-09T08:01:28;18.00;99.90
37412;DHT22;23278;52.110;6.050;2022-09-09T08:04:02;18.10;99.90
37412;DHT22;23278;52.110;6.050;2022-09-09T08:06:31;18.20;99.90
37412;DHT22;23278;52.110;6.050;2022-09-09T08:08:59;18.40;99.90
37412;DHT22;23278;52.110;6.050;2022-09-09T08:11:28;18.50;99.90
37412;DHT22;23278;52.110;6.050;2022-09-09T08:13:55;18.70;99.90
37412;DHT22;23278;52.110;6.050;2022-09-09T08:16:32;18.80;99.80
37412;DHT22;23278;52.110;6.050;2022-09-09T08:18:59;18.90;99.60
37412;DHT22;23278;52.110;6.050;2022-09-09T08:21:28;19.00;99.00
37412;DHT22;23278;52.110;6.050;2022-09-09T08:23:57;19.20;99.10
37412;DHT22;23278;52.110;6.050;2022-09-09T08:26:29;19.40;99.10
37412;DHT22;23278;52.110;6.050;2022-09-09T08:28:57;19.70;98.90
37412;DHT22;23278;52.110;6.050;2022-09-09T08:31:29;19.90;97.90
37412;DHT22;23278;52.110;6.050;2022-09-09T08:33:56;20.10;97.30
37412;DHT22;23278;52.110;6.050;2022-09-09T08:36:25;20.30;96.90
37412;DHT22;23278;52.110;6.050;2022-09-09T08:38:55;20.60;96.40
37412;DHT22;23278;52.110;6.050;2022-09-09T08:50:13;20.90;93.60
37412;DHT22;23278;52.110;6.050;2022-09-09T08:55:50;20.80;93.90
37412;DHT22;23278;52.110;6.050;2022-09-09T08:58:26;20.70;93.70
37412;DHT22;23278;52.110;6.050;2022-09-09T09:11:38;20.30;94.30
37412;DHT22;23278;52.110;6.050;2022-09-09T09:14:22;20.40;93.80
37412;DHT22;23278;52.110;6.050;2022-09-09T09:17:02;20.50;93.60
37412;DHT22;23278;52.110;6.050;2022-09-09T09:19:31;20.60;92.80
37412;DHT22;23278;52.110;6.050;2022-09-09T09:22:11;20.50;92.70
37412;DHT22;23278;52.110;6.050;2022-09-09T09:27:30;20.60;92.90
37412;DHT22;23278;52.110;6.050;2022-09-09T09:29:59;20.60;92.80
37412;DHT22;23278;52.110;6.050;2022-09-09T09:32:30;20.50;92.40
37412;DHT22;23278;52.110;6.050;2022-09-09T09:34:58;20.60;92.40
37412;DHT22;23278;52.110;6.050;2022-09-09T09:37:32;20.60;92.40
37412;DHT22;23278;52.110;6.050;2022-09-09T09:40:12;20.70;92.50
37412;DHT22;23278;52.110;6.050;2022-09-09T09:42:57;20.80;91.70
37412;DHT22;23278;52.110;6.050;2022-09-09T09:45:29;20.90;91.30
37412;DHT22;23278;52.110;6.050;2022-09-09T09:48:08;21.00;91.00
37412;DHT22;23278;52.110;6.050;2022-09-09T09:55:55;20.90;90.10
37412;DHT22;23278;52.110;6.050;2022-09-09T09:58:23;20.90;89.90
37412;DHT22;23278;52.110;6.050;2022-09-09T10:00:52;20.80;90.20
37412;DHT22;23278;52.110;6.050;2022-09-09T10:03:32;20.70;90.40
37412;DHT22;23278;52.110;6.050;2022-09-09T10:06:03;20.60;90.50
37412;DHT22;23278;52.110;6.050;2022-09-09T10:08:33;20.70;90.50
37412;DHT22;23278;52.110;6.050;2022-09-09T10:11:07;21.00;90.30
37412;DHT22;23278;52.110;6.050;2022-09-09T10:19:32;21.80;86.20
37412;DHT22;23278;52.110;6.050;2022-09-09T10:25:14;21.70;84.60
37412;DHT22;23278;52.110;6.050;2022-09-09T10:33:20;21.30;85.40
37412;DHT22;23278;52.110;6.050;2022-09-09T10:38:40;21.00;85.80
37412;DHT22;23278;52.110;6.050;2022-09-09T10:52:30;20.80;86.50
37412;DHT22;23278;52.110;6.050;2022-09-09T10:58:05;20.60;88.30
37412;DHT22;23278;52.110;6.050;2022-09-09T11:00:50;20.70;88.20
37412;DHT22;23278;52.110;6.050;2022-09-09T11:03:28;20.60;88.00
37412;DHT22;23278;52.110;6.050;2022-09-09T11:06:04;20.60;88.00
37412;DHT22;23278;52.110;6.050;2022-09-09T11:08:32;20.70;87.90
37412;DHT22;23278;52.110;6.050;2022-09-09T11:11:06;20.60;87.70
37412;DHT22;23278;52.110;6.050;2022-09-09T11:13:55;20.50;88.10
37412;DHT22;23278;52.110;6.050;2022-09-09T11:16:36;20.60;88.20
37412;DHT22;23278;52.110;6.050;2022-09-09T11:21:49;21.10;86.10
37412;DHT22;23278;52.110;6.050;2022-09-09T11:24:40;21.40;84.80
37412;DHT22;23278;52.110;6.050;2022-09-09T11:27:13;21.60;84.00
37412;DHT22;23278;52.110;6.050;2022-09-09T11:32:55;22.10;83.40
37412;DHT22;23278;52.110;6.050;2022-09-09T11:38:27;22.20;81.80
37412;DHT22;23278;52.110;6.050;2022-09-09T11:41:02;21.90;82.60
37412;DHT22;23278;52.110;6.050;2022-09-09T11:43:38;21.70;83.20
37412;DHT22;23278;52.110;6.050;2022-09-09T11:46:05;21.40;84.40
37412;DHT22;23278;52.110;6.050;2022-09-09T11:48:34;21.70;85.40
37412;DHT22;23278;52.110;6.050;2022-09-09T11:51:08;22.40;84.30
37412;DHT22;23278;52.110;6.050;2022-09-09T11:53:36;23.50;81.80
37412;DHT22;23278;52.110;6.050;2022-09-09T11:56:13;24.30;79.10
37412;DHT22;23278;52.110;6.050;2022-09-09T11:59:01;24.80;76.40
37412;DHT22;23278;52.110;6.050;2022-09-09T12:01:44;24.70;75.40
37412;DHT22;23278;52.110;6.050;2022-09-09T12:06:46;23.80;75.70
37412;DHT22;23278;52.110;6.050;2022-09-09T12:11:53;25.80;70.30
37412;DHT22;23278;52.110;6.050;2022-09-09T12:14:55;25.90;69.50
37412;DHT22;23278;52.110;6.050;2022-09-09T12:17:24;26.10;67.80
37412;DHT22;23278;52.110;6.050;2022-09-09T12:20:13;26.20;67.00
37412;DHT22;23278;52.110;6.050;2022-09-09T12:28:22;25.30;69.30
37412;DHT22;23278;52.110;6.050;2022-09-09T12:31:21;24.80;70.80
37412;DHT22;23278;52.110;6.050;2022-09-09T12:33:50;26.00;69.10
37412;DHT22;23278;52.110;6.050;2022-09-09T12:36:25;27.30;65.00
37412;DHT22;23278;52.110;6.050;2022-09-09T12:38:55;27.60;63.80
37412;DHT22;23278;52.110;6.050;2022-09-09T12:41:24;27.60;62.90
37412;DHT22;23278;52.110;6.050;2022-09-09T12:43:51;27.10;61.90
37412;DHT22;23278;52.110;6.050;2022-09-09T12:46:35;26.20;63.20
37412;DHT22;23278;52.110;6.050;2022-09-09T12:49:03;25.30;65.80
37412;DHT22;23278;52.110;6.050;2022-09-09T12:51:31;24.90;67.40
37412;DHT22;23278;52.110;6.050;2022-09-09T12:53:58;24.60;68.70
37412;DHT22;23278;52.110;6.050;2022-09-09T12:56:30;24.30;69.50
37412;DHT22;23278;52.110;6.050;2022-09-09T12:58:58;24.50;69.50
37412;DHT22;23278;52.110;6.050;2022-09-09T13:01:26;25.10;68.00
37412;DHT22;23278;52.110;6.050;2022-09-09T13:03:54;26.30;65.20
37412;DHT22;23278;52.110;6.050;2022-09-09T13:06:27;26.80;63.70
37412;DHT22;23278;52.110;6.050;2022-09-09T13:08:55;26.40;63.40
37412;DHT22;23278;52.110;6.050;2022-09-09T13:13:57;25.60;65.20
37412;DHT22;23278;52.110;6.050;2022-09-09T13:16:35;25.40;65.70
37412;DHT22;23278;52.110;6.050;2022-09-09T13:19:07;25.00;66.60
37412;DHT22;23278;52.110;6.050;2022-09-09T13:21:38;24.70;67.50
37412;DHT22;23278;52.110;6.050;2022-09-09T13:24:06;24.30;68.40
37412;DHT22;23278;52.110;6.050;2022-09-09T13:26:33;23.80;69.70
37412;DHT22;23278;52.110;6.050;2022-09-09T13:29:19;23.60;70.90
37412;DHT22;23278;52.110;6.050;2022-09-09T13:31:45;23.30;72.50
37412;DHT22;23278;52.110;6.050;2022-09-09T13:34:30;23.00;72.90
37412;DHT22;23278;52.110;6.050;2022-09-09T13:37:02;22.70;75.70
37412;DHT22;23278;52.110;6.050;2022-09-09T13:39:31;22.60;77.30
37412;DHT22;23278;52.110;6.050;2022-09-09T13:41:57;22.70;77.90
37412;DHT22;23278;52.110;6.050;2022-09-09T13:44:30;23.90;74.40
37412;DHT22;23278;52.110;6.050;2022-09-09T13:47:18;24.70;72.30
37412;DHT22;23278;52.110;6.050;2022-09-09T13:49:44;25.80;69.60
37412;DHT22;23278;52.110;6.050;2022-09-09T13:52:18;27.20;65.50
37412;DHT22;23278;52.110;6.050;2022-09-09T13:54:52;27.80;62.70
37412;DHT22;23278;52.110;6.050;2022-09-09T13:57:21;27.40;63.00
37412;DHT22;23278;52.110;6.050;2022-09-09T13:59:48;26.80;63.30
37412;DHT22;23278;52.110;6.050;2022-09-09T14:02:18;26.30;64.30
37412;DHT22;23278;52.110;6.050;2022-09-09T14:04:44;25.90;65.10
37412;DHT22;23278;52.110;6.050;2022-09-09T14:07:15;25.50;66.20
37412;DHT22;23278;52.110;6.050;2022-09-09T14:09:42;25.00;66.80
37412;DHT22;23278;52.110;6.050;2022-09-09T14:12:12;24.40;67.80
37412;DHT22;23278;52.110;6.050;2022-09-09T14:14:38;23.90;69.00
37412;DHT22;23278;52.110;6.050;2022-09-09T14:17:04;23.70;69.80
37412;DHT22;23278;52.110;6.050;2022-09-09T14:19:30;23.50;70.80
37412;DHT22;23278;52.110;6.050;2022-09-09T14:21:57;23.30;71.40
37412;DHT22;23278;52.110;6.050;2022-09-09T14:24:23;23.10;72.00
37412;DHT22;23278;52.110;6.050;2022-09-09T14:26:49;22.90;72.80
37412;DHT22;23278;52.110;6.050;2022-09-09T14:29:15;22.70;73.50
37412;DHT22;23278;52.110;6.050;2022-09-09T14:31:41;22.40;74.40
37412;DHT22;23278;52.110;6.050;2022-09-09T14:34:07;22.20;75.50
37412;DHT22;23278;52.110;6.050;2022-09-09T14:36:33;21.90;78.10
37412;DHT22;23278;52.110;6.050;2022-09-09T14:38:59;21.60;80.10
37412;DHT22;23278;52.110;6.050;2022-09-09T14:41:25;21.80;79.80
37412;DHT22;23278;52.110;6.050;2022-09-09T14:43:51;22.10;79.10
37412;DHT22;23278;52.110;6.050;2022-09-09T14:46:19;22.10;79.30
37412;DHT22;23278;52.110;6.050;2022-09-09T14:48:45;22.00;79.70
37412;DHT22;23278;52.110;6.050;2022-09-09T14:51:16;21.90;80.20
37412;DHT22;23278;52.110;6.050;2022-09-09T14:53:43;21.80;80.80
37412;DHT22;23278;52.110;6.050;2022-09-09T14:56:12;21.80;81.70
37412;DHT22;23278;52.110;6.050;2022-09-09T14:58:39;21.80;82.00
37412;DHT22;23278;52.110;6.050;2022-09-09T15:01:13;21.90;81.90
37412;DHT22;23278;52.110;6.050;2022-09-09T15:03:40;22.00;82.00
37412;DHT22;23278;52.110;6.050;2022-09-09T15:06:12;22.10;82.30
37412;DHT22;23278;52.110;6.050;2022-09-09T15:08:39;22.10;82.50
37412;DHT22;23278;52.110;6.050;2022-09-09T15:11:06;22.00;82.70
37412;DHT22;23278;52.110;6.050;2022-09-09T15:13:34;22.00;83.00
37412;DHT22;23278;52.110;6.050;2022-09-09T15:16:07;22.10;83.30
37412;DHT22;23278;52.110;6.050;2022-09-09T15:18:33;22.40;82.80
37412;DHT22;23278;52.110;6.050;2022-09-09T15:21:00;22.70;82.00
37412;DHT22;23278;52.110;6.050;2022-09-09T15:23:29;23.20;80.40
37412;DHT22;23278;52.110;6.050;2022-09-09T15:25:56;23.60;79.20
37412;DHT22;23278;52.110;6.050;2022-09-09T15:28:22;23.80;77.90
37412;DHT22;23278;52.110;6.050;2022-09-09T15:30:53;23.80;77.20
37412;DHT22;23278;52.110;6.050;2022-09-09T15:33:21;23.50;77.90
37412;DHT22;23278;52.110;6.050;2022-09-09T15:35:48;23.20;78.80
37412;DHT22;23278;52.110;6.050;2022-09-09T15:38:14;22.90;79.80
37412;DHT22;23278;52.110;6.050;2022-09-09T15:40:42;22.60;80.60
37412;DHT22;23278;52.110;6.050;2022-09-09T15:43:09;22.20;81.70
37412;DHT22;23278;52.110;6.050;2022-09-09T15:45:36;21.90;82.60
37412;DHT22;23278;52.110;6.050;2022-09-09T15:48:03;21.70;83.60
37412;DHT22;23278;52.110;6.050;2022-09-09T15:50:30;21.50;84.30
37412;DHT22;23278;52.110;6.050;2022-09-09T15:52:58;21.40;84.80
37412;DHT22;23278;52.110;6.050;2022-09-09T15:55:24;21.30;85.60
37412;DHT22;23278;52.110;6.050;2022-09-09T15:57:51;21.20;86.50
37412;DHT22;23278;52.110;6.050;2022-09-09T16:00:19;21.00;87.10
37412;DHT22;23278;52.110;6.050;2022-09-09T16:02:46;20.90;88.00
37412;DHT22;23278;52.110;6.050;2022-09-09T16:05:13;20.80;88.90
37412;DHT22;23278;52.110;6.050;2022-09-09T16:07:38;20.60;89.70
37412;DHT22;23278;52.110;6.050;2022-09-09T16:10:05;20.50;90.20
37412;DHT22;23278;52.110;6.050;2022-09-09T16:12:31;20.40;91.00
37412;DHT22;23278;52.110;6.050;2022-09-09T16:14:57;20.30;91.70
37412;DHT22;23278;52.110;6.050;2022-09-09T16:17:25;20.10;92.20
37412;DHT22;23278;52.110;6.050;2022-09-09T16:19:51;20.00;92.90
37412;DHT22;23278;52.110;6.050;2022-09-09T16:22:17;20.00;93.10
37412;DHT22;23278;52.110;6.050;2022-09-09T16:24:43;19.90;93.20
37412;DHT22;23278;52.110;6.050;2022-09-09T16:27:10;19.90;93.60
37412;DHT22;23278;52.110;6.050;2022-09-09T16:29:37;19.90;93.80
37412;DHT22;23278;52.110;6.050;2022-09-09T16:32:03;19.90;94.10
37412;DHT22;23278;52.110;6.050;2022-09-09T16:34:29;19.90;94.50
37412;DHT22;23278;52.110;6.050;2022-09-09T16:36:55;19.80;94.80
37412;DHT22;23278;52.110;6.050;2022-09-09T16:39:21;19.60;95.60
37412;DHT22;23278;52.110;6.050;2022-09-09T16:41:48;19.50;96.30
37412;DHT22;23278;52.110;6.050;2022-09-09T16:44:16;19.40;96.60
37412;DHT22;23278;52.110;6.050;2022-09-09T16:46:45;19.40;96.90
37412;DHT22;23278;52.110;6.050;2022-09-09T16:49:13;19.30;97.00
37412;DHT22;23278;52.110;6.050;2022-09-09T16:51:42;19.30;97.20
37412;DHT22;23278;52.110;6.050;2022-09-09T16:54:09;19.20;97.30
37412;DHT22;23278;52.110;6.050;2022-09-09T16:56:38;19.30;97.20
37412;DHT22;23278;52.110;6.050;2022-09-09T16:59:10;19.30;97.20
37412;DHT22;23278;52.110;6.050;2022-09-09T17:01:38;19.30;97.10
37412;DHT22;23278;52.110;6.050;2022-09-09T17:04:06;19.20;96.90
37412;DHT22;23278;52.110;6.050;2022-09-09T17:06:33;19.10;96.70
37412;DHT22;23278;52.110;6.050;2022-09-09T17:09:02;19.20;96.70
37412;DHT22;23278;52.110;6.050;2022-09-09T17:11:29;19.20;96.60
37412;DHT22;23278;52.110;6.050;2022-09-09T17:13:56;19.10;96.70
37412;DHT22;23278;52.110;6.050;2022-09-09T17:16:25;19.00;96.80
37412;DHT22;23278;52.110;6.050;2022-09-09T17:18:53;18.90;96.90
37412;DHT22;23278;52.110;6.050;2022-09-09T17:21:22;18.90;97.10
37412;DHT22;23278;52.110;6.050;2022-09-09T17:23:49;18.80;97.20
37412;DHT22;23278;52.110;6.050;2022-09-09T17:26:18;18.70;97.30
37412;DHT22;23278;52.110;6.050;2022-09-09T17:28:44;18.80;97.40
37412;DHT22;23278;52.110;6.050;2022-09-09T17:31:13;18.70;97.50
37412;DHT22;23278;52.110;6.050;2022-09-09T17:33:41;18.70;97.50
37412;DHT22;23278;52.110;6.050;2022-09-09T17:36:28;18.70;97.80
37412;DHT22;23278;52.110;6.050;2022-09-09T17:38:55;18.70;98.00
37412;DHT22;23278;52.110;6.050;2022-09-09T17:41:26;18.60;98.10
37412;DHT22;23278;52.110;6.050;2022-09-09T17:43:53;18.60;98.20
37412;DHT22;23278;52.110;6.050;2022-09-09T17:46:25;18.50;98.40
37412;DHT22;23278;52.110;6.050;2022-09-09T17:48:54;18.40;98.50
37412;DHT22;23278;52.110;6.050;2022-09-09T17:51:23;18.30;98.70
37412;DHT22;23278;52.110;6.050;2022-09-09T17:53:51;18.20;98.80
37412;DHT22;23278;52.110;6.050;2022-09-09T17:56:19;18.00;99.20